Time;durP1;ratioP1;P1;durP2;ratioP2;P2;SDS_P1;SDS_P2;PMS_P1;PMS_P2;Temp;Humidity;BMP_temperature;BMP_pressure;BME280_temperature;BME280_humidity;BME280_pressure;Samples;Min_cycle;Max_cycle;Signal;HPM_P1;HPM_P2
2022/06/16 00:00:20;;;;;;;4.63;2.85;;;;;;;16.96;64.40;102029.75;4863275;29;20228;-79
2022/06/16 00:02:49;;;;;;;4.00;2.90;;;;;;;16.93;64.44;102030.75;4882565;29;20049;-79
2022/06/16 00:05:16;;;;;;;;;;;;;;;16.92;64.58;102034.34;4881725;29;20032;-79
2022/06/16 00:07:42;;;;;;;4.85;3.45;;;;;;;16.90;64.30;102038.84;4881416;29;19928;-79
2022/06/16 00:10:09;;;;;;;4.80;2.88;;;;;;;16.88;64.46;102040.69;4879525;29;20147;-79
2022/06/16 00:12:35;;;;;;;3.28;3.08;;;;;;;16.87;64.76;102033.72;4880327;29;20351;-79
2022/06/16 00:15:02;;;;;;;8.32;3.13;;;;;;;16.86;64.82;102035.50;4864772;29;20071;-79
2022/06/16 00:17:28;;;;;;;4.72;3.13;;;;;;;16.85;64.45;102041.72;4881406;29;20033;-79
2022/06/16 00:19:53;;;;;;;7.00;3.00;;;;;;;16.81;64.55;102031.34;4865069;29;20101;-79
2022/06/16 00:22:19;;;;;;;5.50;3.10;;;;;;;16.78;64.68;102032.31;4883095;29;20359;-79
2022/06/16 00:24:44;;;;;;;4.47;3.10;;;;;;;16.77;64.64;102029.75;4882289;29;20050;-79
2022/06/16 00:27:09;;;;;;;5.13;3.33;;;;;;;16.73;64.89;102033.47;4871668;29;20056;-79
2022/06/16 00:29:35;;;;;;;5.28;3.03;;;;;;;16.70;64.57;102030.06;4879632;29;20044;-79
2022/06/16 00:32:01;;;;;;;3.80;3.15;;;;;;;16.71;64.75;102038.84;4867080;29;20244;-79
2022/06/16 00:34:28;;;;;;;2.72;2.53;;;;;;;16.72;64.73;102048.50;4884436;29;20044;-79
2022/06/16 00:36:54;;;;;;;3.22;2.40;;;;;;;16.74;64.61;102044.00;4882384;29;20274;-79
2022/06/16 00:39:20;;;;;;;2.55;2.35;;;;;;;16.77;64.69;102048.25;4880581;29;20060;-79
2022/06/16 00:41:45;;;;;;;5.43;2.58;;;;;;;16.77;64.40;102050.91;4867330;29;20383;-79
2022/06/16 00:44:31;;;;;;;4.43;3.15;;;;;;;16.78;64.21;102052.63;4883172;29;20071;-79
2022/06/16 00:46:57;;;;;;;3.25;2.60;;;;;;;16.78;64.46;102052.63;4898808;29;20119;-79
2022/06/16 00:49:23;;;;;;;3.92;2.25;;;;;;;16.78;64.22;102050.84;4882820;29;20036;-79
2022/06/16 00:51:54;;;;;;;2.63;2.42;;;;;;;16.78;64.32;102060.56;4897644;29;20049;-79
2022/06/16 00:54:24;;;;;;;3.05;2.83;;;;;;;16.78;64.49;102064.06;4896395;29;20048;-79
2022/06/16 00:56:52;;;;;;;2.97;2.78;;;;;;;16.76;64.45;102057.16;4883824;29;20036;-79
2022/06/16 00:59:19;;;;;;;2.60;2.40;;;;;;;16.75;64.49;102064.19;4875715;29;20080;-79
2022/06/16 01:04:52;;;;;;;5.05;2.80;;;;;;;16.74;64.70;102070.44;4899218;29;20131;-79
2022/06/16 01:07:23;;;;;;;2.88;2.58;;;;;;;16.72;64.53;102063.50;4905272;29;20037;-79
2022/06/16 01:09:49;;;;;;;5.80;2.95;;;;;;;16.71;64.92;102065.28;4902171;29;20320;-79
2022/06/16 01:15:48;;;;;;;3.75;2.60;;;;;;;16.68;64.82;102066.28;4827408;29;20049;-79
2022/06/16 01:18:37;;;;;;;2.83;2.63;;;;;;;16.66;64.80;102060.22;4900657;29;20060;-79
2022/06/16 01:21:24;;;;;;;3.25;2.95;;;;;;;16.62;64.69;102061.28;4902202;29;20040;-79
2022/06/16 01:24:17;;;;;;;3.53;3.00;;;;;;;16.59;65.10;102065.84;4901997;29;20373;-79
2022/06/16 01:26:48;;;;;;;4.20;3.80;;;;;;;16.51;64.86;102061.78;4903663;29;20046;-79
2022/06/16 01:29:25;;;;;;;4.20;3.50;;;;;;;16.43;65.42;102068.38;4902969;29;20362;-80
2022/06/16 01:31:59;;;;;;;3.72;3.20;;;;;;;16.38;65.20;102067.72;4897821;29;20045;-79
2022/06/16 01:34:52;;;;;;;4.22;3.33;;;;;;;16.31;65.49;102073.25;4892814;29;20118;-80
2022/06/16 01:37:32;;;;;;;4.55;3.38;;;;;;;16.26;65.64;102069.13;4903060;29;20025;-79
2022/06/16 01:40:32;;;;;;;4.88;3.28;;;;;;;16.18;65.78;102072.09;4897386;29;20045;-79
2022/06/16 01:43:10;;;;;;;5.60;3.35;;;;;;;16.18;65.92;102076.53;4885983;29;20036;-79
2022/06/16 01:45:53;;;;;;;3.25;3.05;;;;;;;16.17;65.64;102075.69;4886398;29;20108;-79
2022/06/16 01:48:21;;;;;;;4.95;3.65;;;;;;;16.12;65.76;102078.53;4903205;29;20039;-79
2022/06/16 01:51:03;;;;;;;3.85;3.22;;;;;;;16.10;65.74;102069.81;4884979;29;20050;-79
2022/06/16 01:53:41;;;;;;;3.78;3.38;;;;;;;16.09;66.01;102080.44;4899044;29;20095;-79
2022/06/16 01:56:35;;;;;;;3.55;3.25;;;;;;;16.06;65.96;102084.09;4868617;29;20048;-79
2022/06/16 01:59:11;;;;;;;7.20;3.63;;;;;;;16.05;66.14;102084.16;4900926;29;20048;-79
2022/06/16 02:01:41;;;;;;;5.07;3.20;;;;;;;16.04;66.01;102079.78;4898859;29;20021;-79
2022/06/16 02:04:30;;;;;;;4.20;3.58;;;;;;;16.02;66.09;102084.28;4895212;29;20033;-79
2022/06/16 02:07:01;;;;;;;4.35;3.33;;;;;;;15.99;66.03;102092.34;4899439;29;20084;-79
2022/06/16 02:09:37;;;;;;;3.95;3.45;;;;;;;15.94;65.86;102084.63;4900171;29;20343;-79
2022/06/16 02:12:09;;;;;;;6.68;3.80;;;;;;;15.92;66.08;102094.41;4883550;29;20258;-79
2022/06/16 02:14:41;;;;;;;3.53;3.22;;;;;;;15.90;65.92;102091.81;4902739;29;20044;-79
2022/06/16 02:17:08;;;;;;;4.13;3.20;;;;;;;15.88;66.06;102088.41;4901889;29;20251;-79
2022/06/16 02:19:34;;;;;;;4.47;3.08;;;;;;;15.87;65.89;102089.31;4885742;29;20040;-79
2022/06/16 02:22:01;;;;;;;4.40;3.25;;;;;;;15.84;65.91;102081.50;4901976;29;20075;-80
2022/06/16 02:24:28;;;;;;;3.50;3.20;;;;;;;15.82;65.54;102086.00;4900433;29;20040;-80
2022/06/16 02:26:56;;;;;;;6.28;3.55;;;;;;;15.80;65.98;102079.94;4902005;29;20040;-80
2022/06/16 02:29:34;;;;;;;4.78;3.85;;;;;;;15.74;65.87;102083.69;4890349;29;20144;-80
2022/06/16 02:32:44;;;;;;;4.38;3.97;;;;;;;15.68;65.47;102089.22;4867295;29;20032;-80
2022/06/16 02:35:42;;;;;;;4.90;3.40;;;;;;;15.67;65.81;102091.91;4883220;29;20041;-80
2022/06/16 02:38:46;;;;;;;4.45;3.88;;;;;;;15.62;65.80;102100.00;4882849;29;20128;-80
2022/06/16 02:41:17;;;;;;;3.63;3.33;;;;;;;15.58;65.55;102105.50;4879252;29;20051;-80
2022/06/16 02:43:49;;;;;;;3.70;3.40;;;;;;;15.55;65.79;102115.28;4883547;29;20103;-80
2022/06/16 02:46:27;;;;;;;7.82;4.35;;;;;;;15.52;65.64;102106.63;4902122;29;20111;-81
2022/06/16 02:49:02;;;;;;;4.80;3.37;;;;;;;15.51;65.30;102113.66;4901698;29;20070;-81
2022/06/16 02:51:56;;;;;;;6.60;3.75;;;;;;;15.43;65.73;102112.28;4901385;29;20059;-81
2022/06/16 02:54:45;;;;;;;4.35;3.60;;;;;;;15.40;65.50;102115.03;4899834;29;20331;-81
2022/06/16 02:57:20;;;;;;;4.70;3.17;;;;;;;15.39;65.60;102111.53;4882967;29;20025;-81
2022/06/16 02:59:54;;;;;;;3.72;3.38;;;;;;;15.42;65.69;102121.97;4886134;29;20048;-81
2022/06/16 03:02:23;;;;;;;3.25;2.95;;;;;;;15.45;65.64;102126.28;4900113;29;20069;-81
2022/06/16 03:04:56;;;;;;;3.65;3.33;;;;;;;15.48;65.54;102118.19;4900389;29;20314;-81
2022/06/16 03:07:22;;;;;;;3.88;3.35;;;;;;;15.49;65.67;102112.88;4882402;29;20024;-81
2022/06/16 03:09:48;;;;;;;3.90;3.15;;;;;;;15.51;65.55;102120.72;4901263;29;20048;-81
2022/06/16 03:12:15;;;;;;;5.03;3.15;;;;;;;15.51;65.65;102113.66;4867298;29;20076;-81
2022/06/16 03:14:41;;;;;;;3.92;3.42;;;;;;;15.51;65.42;102116.28;4880722;29;20061;-81
2022/06/16 03:17:07;;;;;;;3.55;3.25;;;;;;;15.52;65.67;102119.81;4891392;29;20115;-81
2022/06/16 03:19:33;;;;;;;4.10;3.65;;;;;;;15.53;65.68;102124.16;4882768;29;20036;-81
2022/06/16 03:21:58;;;;;;;3.58;3.22;;;;;;;15.52;65.63;102133.03;4899183;29;20052;-81
2022/06/16 03:24:24;;;;;;;3.80;3.30;;;;;;;15.52;65.75;102130.38;4866713;29;20047;-81
2022/06/16 03:26:49;;;;;;;3.70;3.40;;;;;;;15.53;65.86;102132.09;4878277;29;20116;-81
2022/06/16 03:29:15;;;;;;;3.70;3.40;;;;;;;15.51;65.66;102129.50;4880598;29;20056;-81
2022/06/16 03:31:40;;;;;;;5.47;3.28;;;;;;;15.52;65.81;102135.66;4899744;29;20275;-81
2022/06/16 03:34:06;;;;;;;3.58;3.28;;;;;;;15.45;65.52;102127.13;4897603;29;20052;-81
2022/06/16 03:36:32;;;;;;;3.90;3.60;;;;;;;15.43;65.20;102136.88;4898156;29;20036;-81
2022/06/16 03:38:57;;;;;;;4.15;3.65;;;;;;;15.41;65.27;102135.22;4883993;29;20395;-81
2022/06/16 03:41:22;;;;;;;3.42;3.17;;;;;;;15.40;65.29;102142.28;4880646;29;20097;-81
2022/06/16 03:43:48;;;;;;;3.67;3.30;;;;;;;15.40;65.62;102133.50;4881249;29;20056;-81
2022/06/16 03:46:16;;;;;;;3.92;3.45;;;;;;;15.39;65.31;102139.69;4864429;29;20040;-81
2022/06/16 03:48:42;;;;;;;3.40;3.20;;;;;;;15.40;65.67;102136.16;4884778;29;20053;-81
2022/06/16 03:51:09;;;;;;;3.15;2.95;;;;;;;15.40;65.37;102141.44;4881114;29;20497;-81
2022/06/16 03:53:35;;;;;;;3.55;2.92;;;;;;;15.41;65.65;102148.41;4884993;29;20064;-81
2022/06/16 03:56:00;;;;;;;3.95;3.17;;;;;;;15.40;65.52;102155.47;4899829;29;20091;-81
2022/06/16 03:58:26;;;;;;;6.13;3.45;;;;;;;15.41;65.77;102156.31;4895598;29;20025;-81
2022/06/16 04:00:51;;;;;;;4.22;3.10;;;;;;;15.41;65.80;102164.25;4882747;29;20074;-81
2022/06/16 04:06:02;;;;;;;3.42;3.15;;;;;;;15.41;65.96;102159.84;4899381;29;20063;-81
2022/06/16 04:08:28;;;;;;;5.07;3.50;;;;;;;15.41;66.08;102167.78;4886616;29;20055;-81
2022/06/16 04:10:54;;;;;;;4.30;3.35;;;;;;;15.41;65.98;102170.41;4880886;29;20048;-81
2022/06/16 04:13:20;;;;;;;3.22;2.92;;;;;;;15.41;66.53;102174.81;4881835;29;20049;-81
2022/06/16 04:15:45;;;;;;;7.38;3.58;;;;;;;15.38;66.56;102181.09;4884106;29;20061;-81
2022/06/16 04:18:11;;;;;;;5.65;3.20;;;;;;;15.38;66.50;102186.38;4880786;29;20039;-81
2022/06/16 04:20:36;;;;;;;3.88;3.53;;;;;;;15.36;66.44;102182.94;4881333;29;20234;-81
2022/06/16 04:23:02;;;;;;;3.05;2.75;;;;;;;15.36;66.45;102186.41;4899451;29;20036;-81
2022/06/16 04:25:30;;;;;;;4.80;3.30;;;;;;;15.36;66.44;102186.41;4859002;29;20342;-81
2022/06/16 04:28:00;;;;;;;3.80;3.40;;;;;;;15.35;66.79;102184.72;4903164;29;20041;-81
2022/06/16 04:30:26;;;;;;;3.72;3.42;;;;;;;15.35;66.80;102202.31;4902126;29;20324;-81
2022/06/16 04:32:52;;;;;;;3.92;3.50;;;;;;;15.34;67.04;102213.81;4886142;29;20056;-81
2022/06/16 04:35:17;;;;;;;3.63;3.08;;;;;;;15.34;66.80;102219.09;4903413;29;20044;-81
2022/06/16 04:37:43;;;;;;;3.83;3.17;;;;;;;15.33;67.24;102220.00;4885253;29;20531;-81
2022/06/16 04:40:10;;;;;;;3.42;3.22;;;;;;;15.33;67.02;102222.63;4882916;29;20045;-81
2022/06/16 04:42:36;;;;;;;3.45;3.05;;;;;;;15.32;67.15;102218.28;4896757;29;20051;-81
2022/06/16 04:45:01;;;;;;;4.72;3.50;;;;;;;15.32;67.37;102228.84;4886119;29;20033;-81
2022/06/16 04:47:27;;;;;;;4.43;3.65;;;;;;;15.32;67.49;102232.34;4901246;29;20239;-81
2022/06/16 04:49:52;;;;;;;4.82;3.33;;;;;;;15.32;67.45;102232.34;4870265;29;20044;-81
2022/06/16 04:52:18;;;;;;;3.63;3.38;;;;;;;15.33;67.61;102238.47;4879564;29;20048;-81
2022/06/16 04:54:45;;;;;;;4.05;3.70;;;;;;;15.33;67.55;102241.09;4884083;29;20045;-81
2022/06/16 04:57:11;;;;;;;5.90;3.83;;;;;;;15.30;67.55;102247.38;4882357;29;20231;-81
2022/06/16 04:59:37;;;;;;;7.53;4.20;;;;;;;15.26;66.21;102252.81;4882721;29;20029;-81
2022/06/16 05:02:03;;;;;;;5.05;3.90;;;;;;;15.22;66.28;102254.72;4884004;29;20037;-81
2022/06/16 05:04:29;;;;;;;5.30;4.47;;;;;;;15.21;66.73;102244.19;4851579;29;20055;-81
2022/06/16 05:06:55;;;;;;;8.63;3.80;;;;;;;15.18;65.89;102242.56;4851721;29;20028;-81
2022/06/16 05:09:21;;;;;;;6.45;3.90;;;;;;;15.15;65.71;102247.94;4883751;29;20123;-81
2022/06/16 05:11:46;;;;;;;4.22;3.58;;;;;;;15.16;65.95;102254.94;4882888;29;20041;-81
2022/06/16 05:14:12;;;;;;;5.63;3.90;;;;;;;15.17;65.50;102269.84;4883673;29;20040;-81
2022/06/16 05:16:37;;;;;;;5.00;3.30;;;;;;;15.15;64.81;102279.59;4883762;29;20400;-81
2022/06/16 05:19:03;;;;;;;4.88;3.22;;;;;;;15.14;64.63;102272.63;4883439;29;20112;-81
2022/06/16 05:21:28;;;;;;;4.85;3.60;;;;;;;15.08;64.59;102265.78;4882722;29;20037;-81
2022/06/16 05:23:53;;;;;;;6.00;3.90;;;;;;;15.07;64.57;102256.16;4883669;29;20080;-81
2022/06/16 05:26:19;;;;;;;3.80;3.38;;;;;;;15.04;65.09;102268.59;4883724;29;20041;-81
2022/06/16 05:28:44;;;;;;;4.70;3.83;;;;;;;15.07;64.85;102269.34;4883740;29;20037;-81
2022/06/16 05:31:10;;;;;;;5.32;3.25;;;;;;;15.09;64.98;102274.56;4882117;29;20048;-81
2022/06/16 05:33:35;;;;;;;4.68;3.15;;;;;;;15.09;64.62;102258.72;4897972;29;20084;-80
2022/06/16 05:36:12;;;;;;;6.45;2.88;;;;;;;15.11;63.79;102257.75;4896774;29;20449;-80
2022/06/16 05:38:38;;;;;;;3.63;2.90;;;;;;;15.11;62.93;102257.75;4882928;29;20043;-81
2022/06/16 05:41:10;;;;;;;4.57;3.15;;;;;;;15.10;62.22;102261.31;4884929;29;20055;-81
2022/06/16 05:43:36;;;;;;;3.28;2.80;;;;;;;15.10;62.08;102257.84;4900550;29;20055;-81
2022/06/16 05:46:04;;;;;;;4.72;3.03;;;;;;;15.08;61.71;102260.53;4875635;29;20094;-81
2022/06/16 05:48:30;;;;;;;3.90;3.15;;;;;;;15.10;62.46;102265.75;4882935;29;20041;-81
2022/06/16 05:50:55;;;;;;;3.78;2.88;;;;;;;15.11;62.56;102273.56;4883914;29;20514;-81
2022/06/16 05:53:21;;;;;;;12.48;3.50;;;;;;;15.13;63.00;102268.25;4866602;29;20136;-81
2022/06/16 05:55:46;;;;;;;6.18;2.85;;;;;;;15.12;62.98;102269.19;4883547;29;20297;-80
2022/06/16 05:58:12;;;;;;;5.22;3.40;;;;;;;15.13;63.42;102274.41;4881326;29;20033;-81
2022/06/16 06:00:38;;;;;;;7.97;3.50;;;;;;;15.15;64.24;102280.50;4866215;29;20240;-80
2022/06/16 06:03:04;;;;;;;4.18;3.78;;;;;;;15.16;64.83;102268.16;4881557;29;20049;-81
2022/06/16 06:05:30;;;;;;;3.95;3.38;;;;;;;15.19;64.47;102272.44;4882922;29;20080;-80
2022/06/16 06:16:28;;;;;;;5.72;2.92;;;;;;;15.23;63.14;102274.91;4854560;29;20335;-81
2022/06/16 06:18:55;;;;;;;4.35;2.90;;;;;;;15.26;62.64;102281.84;4890282;29;20032;-81
2022/06/16 06:21:58;;;;;;;8.10;2.85;;;;;;;15.28;62.38;102282.66;4882159;29;20043;-80
2022/06/16 06:24:06;;;;;;;3.65;3.28;;;;;;;15.31;62.88;102288.66;4883910;29;20233;-81
2022/06/16 06:26:31;;;;;;;3.95;3.08;;;;;;;15.34;62.97;102285.91;4883351;29;20292;-81
2022/06/16 06:28:57;;;;;;;2.83;2.53;;;;;;;15.40;63.12;102289.25;4882205;29;20045;-81
2022/06/16 06:31:22;;;;;;;5.75;2.70;;;;;;;15.41;62.41;102285.69;4864893;29;20036;-81
2022/06/16 06:33:48;;;;;;;3.97;2.65;;;;;;;15.44;60.94;102285.56;4862332;29;20224;-81
2022/06/16 06:36:13;;;;;;;7.63;2.58;;;;;;;15.46;61.47;102281.97;4849349;29;20055;-81
2022/06/16 06:38:38;;;;;;;6.03;2.35;;;;;;;15.45;60.95;102288.16;4859457;29;20034;-81
2022/06/16 06:41:05;;;;;;;5.82;2.53;;;;;;;15.48;60.60;102295.09;4880408;29;20251;-81
2022/06/16 06:43:31;;;;;;;3.10;2.78;;;;;;;15.50;60.43;102290.63;4864269;29;20044;-81
2022/06/16 06:45:56;;;;;;;7.72;2.10;;;;;;;15.52;59.80;102292.28;4864239;29;20043;-81
2022/06/16 06:48:21;;;;;;;3.75;2.30;;;;;;;15.53;60.65;102296.66;4883306;29;20024;-81
2022/06/16 06:50:47;;;;;;;3.85;2.15;;;;;;;15.56;60.44;102285.09;4880877;29;20045;-81
2022/06/16 06:53:13;;;;;;;2.88;2.10;;;;;;;15.59;60.00;102292.03;4864595;29;20039;-81
2022/06/16 06:55:41;;;;;;;5.82;2.30;;;;;;;15.62;60.11;102295.41;4874091;29;20112;-81
2022/06/16 06:58:07;;;;;;;7.85;2.35;;;;;;;15.65;60.17;102297.09;4877782;29;20246;-81
2022/06/16 07:00:33;;;;;;;3.90;2.00;;;;;;;15.69;58.36;102307.47;4883590;29;20258;-81
2022/06/16 07:02:58;;;;;;;5.80;1.85;;;;;;;15.72;58.27;102317.06;4880081;29;20065;-81
2022/06/16 07:05:23;;;;;;;2.85;2.10;;;;;;;15.74;58.28;102313.47;4863611;29;20241;-81
2022/06/16 07:07:49;;;;;;;2.55;1.80;;;;;;;15.76;57.80;102312.56;4881043;29;20112;-81
2022/06/16 07:10:17;;;;;;;2.30;1.70;;;;;;;15.81;56.87;102313.22;4874982;29;20432;-81
2022/06/16 07:12:43;;;;;;;3.30;2.00;;;;;;;15.83;56.61;102314.91;4880550;29;20031;-81
2022/06/16 07:15:09;;;;;;;4.40;1.80;;;;;;;15.86;57.00;102312.16;4862096;29;20033;-81
2022/06/16 07:17:34;;;;;;;3.53;1.90;;;;;;;15.90;57.48;102318.16;4881393;29;20242;-81
2022/06/16 07:19:59;;;;;;;4.85;1.50;;;;;;;15.92;58.30;102321.59;4887550;29;20096;-81
2022/06/16 07:22:25;;;;;;;4.13;1.80;;;;;;;15.99;56.80;102323.09;4872126;29;20044;-80
2022/06/16 07:24:51;;;;;;;4.47;2.35;;;;;;;16.00;56.86;102322.16;4874199;29;20447;-81
2022/06/16 07:27:19;;;;;;;3.25;1.70;;;;;;;16.04;56.61;102326.38;4867018;29;20241;-81
2022/06/16 07:29:46;;;;;;;1.90;1.80;;;;;;;16.05;55.96;102328.09;4870460;29;20274;-81
2022/06/16 07:32:13;;;;;;;4.28;2.03;;;;;;;16.09;57.10;102329.69;4863294;29;20112;-81
2022/06/16 07:34:38;;;;;;;5.50;1.90;;;;;;;16.10;57.55;102336.72;4865458;29;20304;-81
2022/06/16 07:37:04;;;;;;;2.55;1.85;;;;;;;16.15;56.11;102335.66;4880066;29;20061;-81
2022/06/16 07:39:29;;;;;;;5.25;1.70;;;;;;;16.17;56.08;102337.34;4864737;29;20052;-81
2022/06/16 07:41:54;;;;;;;4.97;1.67;;;;;;;16.23;56.03;102341.53;4861346;29;20048;-81
2022/06/16 07:44:20;;;;;;;3.33;2.08;;;;;;;16.27;56.34;102341.31;4862749;29;20108;-81
2022/06/16 07:46:49;;;;;;;4.30;1.95;;;;;;;16.31;55.53;102349.97;4862427;29;20048;-81
2022/06/16 07:49:21;;;;;;;4.15;1.95;;;;;;;16.39;54.47;102350.53;4880579;29;20310;-81
2022/06/16 07:51:47;;;;;;;4.60;1.55;;;;;;;16.44;53.95;102356.47;4877894;29;20045;-81
2022/06/16 07:54:12;;;;;;;3.25;1.95;;;;;;;16.50;54.72;102355.38;4840346;29;20040;-81
2022/06/16 07:56:38;;;;;;;3.28;1.73;;;;;;;16.56;54.93;102351.63;4861979;29;20038;-81
2022/06/16 07:59:04;;;;;;;2.45;1.70;;;;;;;16.62;54.81;102367.22;4864976;29;20028;-81
2022/06/16 08:01:29;;;;;;;3.45;1.85;;;;;;;16.65;54.75;102364.47;4883040;29;20051;-81
2022/06/16 08:03:55;;;;;;;5.93;1.98;;;;;;;16.66;54.91;102361.75;4890825;29;20336;-82
2022/06/16 08:06:26;;;;;;;2.17;1.70;;;;;;;16.69;55.12;102361.59;4874953;29;20100;-81
2022/06/16 08:08:52;;;;;;;4.38;1.95;;;;;;;16.77;55.01;102360.41;4879669;29;20071;-81
2022/06/16 08:14:02;;;;;;;1.85;1.60;;;;;;;16.79;56.44;102353.28;4884208;29;20236;-81
2022/06/16 08:16:30;;;;;;;1.70;1.50;;;;;;;16.82;56.40;102355.81;4861604;29;20255;-81
2022/06/16 08:18:56;;;;;;;3.65;1.50;;;;;;;16.89;56.64;102357.28;4889892;29;20355;-81
2022/06/16 08:21:22;;;;;;;3.00;1.73;;;;;;;16.95;56.53;102358.81;4859872;29;20051;-81
2022/06/16 08:23:47;;;;;;;4.90;2.03;;;;;;;17.02;56.40;102357.63;4865712;29;20049;-81
2022/06/16 08:26:13;;;;;;;2.47;2.20;;;;;;;17.07;56.29;102364.41;4875410;29;20049;-81
2022/06/16 08:28:38;;;;;;;4.18;1.70;;;;;;;17.18;54.89;102350.72;4869626;29;20376;-81
2022/06/16 08:31:05;;;;;;;3.38;1.73;;;;;;;17.27;54.62;102357.38;4865637;29;20321;-81
2022/06/16 08:33:31;;;;;;;3.65;2.00;;;;;;;17.29;54.64;102360.81;4884380;29;20054;-81
2022/06/16 08:35:56;;;;;;;2.17;1.85;;;;;;;17.33;54.68;102367.69;4875004;29;20091;-81
2022/06/16 08:38:22;;;;;;;5.85;2.20;;;;;;;17.35;54.45;102373.78;4883463;29;20400;-82
2022/06/16 08:40:51;;;;;;;2.92;1.80;;;;;;;17.38;54.72;102371.00;4876936;29;20056;-81
2022/06/16 08:43:24;;;;;;;;;;;;;;;17.42;56.56;102377.03;4861326;29;20109;-81
2022/06/16 08:45:56;;;;;;;4.18;1.98;;;;;;;17.45;55.29;102368.94;4874002;29;19962;-81
2022/06/16 08:48:40;;;;;;;4.35;2.38;;;;;;;17.49;54.25;102373.16;4882503;29;20044;-81
2022/06/16 08:51:24;;;;;;;6.32;2.40;;;;;;;17.52;54.19;102372.16;4861635;29;20056;-81
2022/06/16 08:54:09;;;;;;;5.53;2.83;;;;;;;17.56;54.50;102376.41;4859910;29;20032;-79
2022/06/16 08:56:47;;;;;;;3.30;1.83;;;;;;;17.58;55.03;102378.03;4875948;29;20228;-81
2022/06/16 08:59:15;;;;;;;3.58;2.55;;;;;;;17.59;54.62;102371.81;4878014;29;20033;-81
2022/06/16 09:02:11;;;;;;;6.03;1.92;;;;;;;17.61;55.21;102372.63;4871201;29;20328;-80
2022/06/16 09:05:16;;;;;;;2.40;2.20;;;;;;;17.68;54.95;102380.25;4860130;29;20041;-80
2022/06/16 09:07:53;;;;;;;5.35;2.53;;;;;;;17.76;54.68;102373.69;4878803;29;20089;-81
2022/06/16 09:10:40;;;;;;;4.53;2.17;;;;;;;17.78;54.50;102369.16;4869258;29;20049;-80
2022/06/16 09:13:32;;;;;;;3.70;2.15;;;;;;;17.86;54.71;102367.97;4878151;29;20041;-81
2022/06/16 09:16:32;;;;;;;2.53;2.03;;;;;;;17.95;54.00;102368.41;4881091;29;20037;-81
2022/06/16 09:19:07;;;;;;;5.32;2.42;;;;;;;18.00;53.53;102378.78;4866765;29;20033;-81
2022/06/16 09:21:35;;;;;;;4.15;2.10;;;;;;;18.01;53.15;102381.38;4880421;29;20040;-81
2022/06/16 09:24:01;;;;;;;2.08;1.88;;;;;;;18.04;54.36;102377.72;4878087;29;20045;-81
2022/06/16 09:26:36;;;;;;;3.72;2.42;;;;;;;18.09;55.87;102380.16;4883489;29;20069;-81
2022/06/16 09:29:11;;;;;;;7.60;2.47;;;;;;;18.17;54.67;102368.25;4865824;29;20112;-84
2022/06/16 09:31:55;;;;;;;2.33;2.13;;;;;;;18.26;54.43;102368.72;4876041;29;20037;-81
2022/06/16 09:34:33;;;;;;;2.80;2.20;;;;;;;18.33;55.21;102375.44;4880088;29;20040;-80
2022/06/16 09:37:07;;;;;;;4.25;2.30;;;;;;;18.35;56.64;102369.13;4878176;29;20044;-80
2022/06/16 09:39:48;;;;;;;2.85;2.10;;;;;;;18.42;55.31;102369.69;4880082;29;20032;-81
2022/06/16 09:42:33;;;;;;;3.50;2.40;;;;;;;18.47;55.16;102367.66;4877975;29;20049;-81
2022/06/16 09:45:13;;;;;;;5.55;2.67;;;;;;;18.53;55.14;102362.03;4880327;29;20401;-80
2022/06/16 09:47:51;;;;;;;3.88;2.20;;;;;;;18.60;55.23;102368.75;4880156;29;20051;-81
2022/06/16 09:50:30;;;;;;;5.00;2.53;;;;;;;18.64;56.24;102377.44;4877263;29;20037;-80
2022/06/16 09:53:06;;;;;;;4.63;2.42;;;;;;;18.70;55.20;102366.53;4878092;29;20052;-80
2022/06/16 09:55:39;;;;;;;5.60;1.90;;;;;;;18.73;56.47;102371.66;4865202;29;20037;-80
2022/06/16 09:58:34;;;;;;;3.70;2.13;;;;;;;18.77;56.24;102381.19;4862901;29;20033;-81
2022/06/16 10:01:08;;;;;;;3.78;2.13;;;;;;;18.84;54.94;102386.22;4881104;29;20055;-81
2022/06/16 10:03:40;;;;;;;4.07;2.15;;;;;;;18.88;55.86;102383.34;4879512;29;20043;-80
2022/06/16 10:06:23;;;;;;;3.65;2.08;;;;;;;18.95;54.45;102379.41;4892324;29;20116;-81
2022/06/16 10:09:08;;;;;;;4.55;2.15;;;;;;;19.02;53.35;102382.59;4879425;29;20053;-80
2022/06/16 10:12:00;;;;;;;3.83;2.60;;;;;;;19.13;53.76;102384.69;4881963;29;20226;-81
2022/06/16 10:14:43;;;;;;;3.25;1.88;;;;;;;19.16;54.64;102390.72;4854127;29;20060;-81
2022/06/16 10:17:13;;;;;;;2.33;2.13;;;;;;;19.22;55.39;102389.53;4862901;29;20067;-81
2022/06/16 10:19:44;;;;;;;5.40;2.60;;;;;;;19.33;53.77;102386.31;4860596;29;20096;-81
2022/06/16 10:22:23;;;;;;;4.65;2.65;;;;;;;19.36;51.91;102388.81;4867036;29;20036;-80
2022/06/16 10:24:51;;;;;;;3.47;2.65;;;;;;;19.46;50.85;102397.13;4859103;29;20239;-81
2022/06/16 10:27:19;;;;;;;4.60;2.60;;;;;;;19.50;51.25;102396.00;4881670;29;20045;-81
2022/06/16 10:29:55;;;;;;;9.68;2.42;;;;;;;19.54;51.55;102400.25;4878117;29;20136;-81
2022/06/16 10:32:34;;;;;;;5.43;2.53;;;;;;;19.60;51.30;102399.06;4877281;29;20335;-81
2022/06/16 10:35:01;;;;;;;10.23;2.70;;;;;;;19.60;51.53;102402.56;4877305;29;20048;-81
2022/06/16 10:37:30;;;;;;;3.78;2.88;;;;;;;19.60;51.03;102397.25;4863865;29;20325;-81
2022/06/16 10:40:03;;;;;;;5.45;2.42;;;;;;;19.62;51.87;102398.00;4863072;29;20033;-81
2022/06/16 10:42:40;;;;;;;4.20;2.45;;;;;;;19.70;50.61;102393.16;4866866;29;20040;-81
2022/06/16 10:45:09;;;;;;;9.80;2.58;;;;;;;19.69;50.31;102395.91;4866220;29;20314;-81
2022/06/16 10:47:47;;;;;;;2.85;2.28;;;;;;;19.70;52.08;102394.94;4880195;29;20036;-81
2022/06/16 10:50:21;;;;;;;5.40;2.67;;;;;;;19.76;52.06;102397.31;4866872;29;20029;-81
2022/06/16 10:52:53;;;;;;;5.45;2.15;;;;;;;19.81;51.76;102397.03;4876706;29;20051;-81
2022/06/16 10:55:25;;;;;;;3.70;2.30;;;;;;;19.84;51.84;102403.03;4869810;29;20281;-81
2022/06/16 10:58:23;;;;;;;7.45;2.75;;;;;;;19.91;50.99;102400.91;4868481;29;20037;-81
2022/06/16 11:01:29;;;;;;;5.53;2.40;;;;;;;19.94;50.45;102395.44;4872103;29;20056;-81
2022/06/16 11:04:09;;;;;;;2.20;2.00;;;;;;;19.94;51.28;102385.66;4881175;29;20569;-81
2022/06/16 11:06:39;;;;;;;4.03;2.20;;;;;;;19.99;53.77;102384.53;4890788;29;20067;-81
2022/06/16 11:09:06;;;;;;;4.07;2.30;;;;;;;20.05;52.71;102389.53;4864948;29;20225;-81
2022/06/16 11:12:16;;;;;;;3.08;2.20;;;;;;;20.08;50.93;102387.53;4882078;29;20244;-81
2022/06/16 11:14:54;;;;;;;2.92;2.40;;;;;;;20.18;51.09;102387.88;4807027;29;20110;-81
2022/06/16 11:17:24;;;;;;;2.75;2.33;;;;;;;20.22;52.64;102378.75;4866803;29;20033;-81
2022/06/16 11:20:03;;;;;;;2.80;2.58;;;;;;;20.28;50.42;102380.22;4883714;29;20029;-81
2022/06/16 11:22:39;;;;;;;5.00;3.10;;;;;;;20.28;50.13;102370.44;4882716;29;20037;-81
2022/06/16 11:25:19;;;;;;;6.30;2.80;;;;;;;20.29;50.84;102369.50;4879679;29;20044;-81
2022/06/16 11:27:57;;;;;;;3.45;2.50;;;;;;;20.33;51.80;102365.69;4885266;29;20048;-81
2022/06/16 11:30:47;;;;;;;5.57;3.33;;;;;;;20.41;50.50;102377.69;4878866;29;20041;-81
2022/06/16 11:36:52;;;;;;;3.65;2.72;;;;;;;20.52;49.91;102377.97;4873407;29;20407;-81
2022/06/16 11:39:39;;;;;;;6.07;2.80;;;;;;;20.62;50.50;102386.28;4846622;29;20169;-80
2022/06/16 11:42:30;;;;;;;5.80;2.55;;;;;;;20.62;50.76;102386.28;4877484;29;20049;-80
2022/06/16 11:45:21;;;;;;;4.07;2.83;;;;;;;20.67;50.06;102382.41;4867200;29;20045;-81
2022/06/16 11:48:12;;;;;;;5.25;2.40;;;;;;;20.75;50.34;102387.25;4869582;29;20059;-80
2022/06/16 11:51:05;;;;;;;2.58;2.38;;;;;;;20.78;51.61;102395.06;4872190;29;20227;-81
2022/06/16 11:53:55;;;;;;;4.72;2.22;;;;;;;20.87;49.25;102414.97;4859055;29;20033;-81
2022/06/16 11:56:35;;;;;;;6.72;2.60;;;;;;;20.87;50.32;102413.16;4879349;29;20048;-81
2022/06/16 11:59:24;;;;;;;3.22;2.35;;;;;;;20.88;49.10;102409.56;4874305;29;20041;-81
2022/06/16 12:01:58;;;;;;;4.25;2.38;;;;;;;20.93;51.17;102411.09;4849166;29;20090;-81
2022/06/16 12:04:49;;;;;;;2.10;1.90;;;;;;;20.94;52.88;102419.00;4867356;29;20399;-80
2022/06/16 12:07:26;;;;;;;2.70;2.35;;;;;;;20.98;51.57;102417.84;4880600;29;20043;-80
2022/06/16 12:10:01;;;;;;;3.03;2.30;;;;;;;21.04;53.38;102425.47;4871383;29;20061;-80
2022/06/16 12:12:59;;;;;;;3.70;2.85;;;;;;;21.09;52.15;102419.88;4883820;29;20105;-80